createdAt,value
2018-07-22T00:05:01.597Z,20.10
2018-07-22T00:10:05.121Z,20.00
2018-07-22T00:15:08.210Z,20.00
2018-07-22T00:20:11.264Z,19.90
2018-07-22T00:25:14.707Z,19.80
2018-07-22T00:30:17.792Z,19.70
2018-07-22T00:35:20.891Z,19.60
2018-07-22T00:40:23.998Z,19.40
2018-07-22T00:45:27.109Z,19.30
2018-07-22T00:50:30.211Z,19.20
2018-07-22T00:55:33.504Z,19.10
2018-07-22T01:00:36.549Z,19.10
2018-07-22T01:05:39.587Z,18.90
2018-07-22T01:15:45.848Z,18.80
2018-07-22T01:20:48.932Z,18.70
2018-07-22T01:25:52.023Z,18.60
2018-07-22T01:30:55.059Z,18.70
2018-07-22T01:35:58.128Z,18.60
2018-07-22T01:41:01.265Z,18.60
2018-07-22T01:46:04.431Z,18.60
2018-07-22T01:51:07.848Z,18.60
2018-07-22T01:56:10.966Z,18.70
2018-07-22T02:01:14.042Z,18.60
2018-07-22T02:11:19.969Z,18.60
2018-07-22T02:16:23.145Z,18.50
2018-07-22T02:21:26.266Z,18.50
2018-07-22T02:26:29.313Z,18.40
2018-07-22T02:31:32.397Z,18.30
2018-07-22T02:36:35.480Z,18.30
2018-07-22T02:41:38.630Z,18.20
2018-07-22T02:46:41.725Z,18.10
2018-07-22T02:51:44.828Z,18.10
2018-07-22T02:56:47.899Z,18.10
2018-07-22T03:01:50.964Z,18.00
2018-07-22T03:06:54.039Z,18.00
2018-07-22T03:11:58.200Z,17.90
2018-07-22T03:17:01.322Z,17.90
2018-07-22T03:22:04.393Z,17.90
2018-07-22T03:27:07.662Z,17.80
2018-07-22T03:32:10.816Z,17.80
2018-07-22T03:37:13.888Z,17.80
2018-07-22T03:42:16.956Z,17.90
2018-07-22T03:47:20.023Z,17.90
2018-07-22T03:52:23.075Z,18.00
2018-07-22T03:57:26.155Z,18.10
2018-07-22T04:02:29.210Z,18.10
2018-07-22T04:07:32.288Z,18.10
2018-07-22T04:12:35.343Z,18.20
2018-07-22T04:17:38.451Z,18.30
2018-07-22T04:22:41.538Z,18.50
2018-07-22T04:27:44.608Z,18.60
2018-07-22T04:32:47.687Z,18.70
2018-07-22T04:37:50.778Z,18.80
2018-07-22T04:42:53.885Z,18.90
2018-07-22T04:47:56.937Z,19.00
2018-07-22T04:53:00.004Z,19.00
2018-07-22T04:58:03.064Z,19.20
2018-07-22T05:03:06.162Z,19.40
2018-07-22T05:08:09.241Z,19.50
2018-07-22T05:13:12.333Z,19.50
2018-07-22T05:18:15.444Z,19.60
2018-07-22T05:23:18.536Z,19.80
2018-07-22T05:28:21.636Z,20.00
2018-07-22T05:33:24.697Z,20.10
2018-07-22T05:38:27.766Z,20.30
2018-07-22T05:43:30.884Z,20.40
2018-07-22T05:53:36.839Z,20.60
2018-07-22T05:58:39.903Z,20.60
2018-07-22T06:03:42.949Z,21.10
2018-07-22T06:08:46.019Z,21.40
2018-07-22T06:13:49.140Z,21.90
2018-07-22T06:18:52.236Z,22.60
2018-07-22T06:23:55.359Z,23.00
2018-07-22T06:28:58.744Z,23.60
2018-07-22T06:34:03.243Z,23.70
2018-07-22T06:39:08.685Z,23.30
2018-07-22T06:44:11.943Z,23.20
2018-07-22T06:49:15.001Z,23.30
2018-07-22T06:54:18.125Z,23.70
2018-07-22T06:59:21.248Z,24.30
2018-07-22T07:04:24.458Z,24.60
2018-07-22T07:09:27.569Z,25.10
2018-07-22T07:14:30.676Z,25.90
2018-07-22T07:19:33.777Z,25.80
2018-07-22T07:24:36.861Z,24.90
2018-07-22T07:29:40.108Z,24.80
2018-07-22T07:34:43.258Z,24.80
2018-07-22T07:44:49.319Z,25.20
2018-07-22T07:49:52.496Z,25.10
2018-07-22T07:54:55.580Z,25.00
2018-07-22T07:59:58.693Z,25.00
2018-07-22T08:05:01.732Z,25.20
2018-07-22T08:10:06.455Z,25.50
2018-07-22T08:15:09.670Z,26.00
2018-07-22T08:20:12.705Z,26.70
2018-07-22T08:25:16.071Z,27.10
2018-07-22T08:30:19.139Z,27.00
2018-07-22T08:35:22.368Z,28.10
2018-07-22T08:40:25.493Z,28.30
2018-07-22T08:45:29.179Z,27.60
2018-07-22T08:50:32.262Z,27.20
2018-07-22T08:55:35.368Z,27.20
2018-07-22T09:00:38.444Z,27.70
2018-07-22T09:05:41.639Z,27.90
2018-07-22T09:10:44.699Z,28.00
2018-07-22T09:15:47.825Z,28.60
2018-07-22T09:20:50.863Z,28.40
2018-07-22T09:25:54.069Z,28.50
2018-07-22T09:30:57.442Z,28.50
2018-07-22T09:36:00.576Z,28.80
2018-07-22T09:41:07.967Z,28.50
2018-07-22T09:46:11.079Z,28.60
2018-07-22T09:51:14.119Z,28.90
2018-07-22T09:56:17.204Z,28.50
2018-07-22T10:01:20.693Z,28.20
2018-07-22T10:06:23.758Z,28.20
2018-07-22T10:11:26.784Z,27.90
2018-07-22T10:16:29.836Z,27.70
2018-07-22T10:21:32.919Z,27.70
2018-07-22T10:26:35.999Z,27.50
2018-07-22T10:31:39.169Z,27.70
2018-07-22T10:36:42.221Z,28.30
2018-07-22T10:41:45.293Z,28.50
2018-07-22T10:46:48.379Z,28.00
2018-07-22T11:01:57.203Z,27.70
2018-07-22T11:07:00.256Z,27.90
2018-07-22T11:12:03.350Z,28.00
2018-07-22T11:17:06.439Z,27.80
2018-07-22T11:22:09.779Z,27.50
2018-07-22T11:27:12.829Z,27.50
2018-07-22T11:32:15.910Z,27.70
2018-07-22T11:37:19.039Z,27.70
2018-07-22T11:42:22.260Z,28.10
2018-07-22T11:47:26.795Z,28.30
2018-07-22T11:52:29.921Z,28.40
2018-07-22T11:57:33.029Z,28.20
2018-07-22T12:02:36.168Z,28.10
2018-07-22T12:07:39.411Z,28.20
2018-07-22T12:12:42.624Z,28.20
2018-07-22T12:17:45.978Z,28.30
2018-07-22T12:22:49.047Z,28.30
2018-07-22T12:27:52.365Z,28.20
2018-07-22T12:32:55.416Z,28.40
2018-07-22T12:37:58.482Z,28.20
2018-07-22T12:43:01.532Z,28.30
2018-07-22T12:48:04.774Z,28.60
2018-07-22T12:53:08.314Z,28.70
2018-07-22T12:58:11.437Z,28.60
2018-07-22T13:03:14.461Z,28.50
2018-07-22T13:08:17.508Z,28.20
2018-07-22T13:13:20.615Z,28.10
2018-07-22T13:18:23.694Z,28.30
2018-07-22T13:23:27.003Z,28.70
2018-07-22T13:28:30.209Z,28.70
2018-07-22T13:33:33.363Z,28.60
2018-07-22T13:38:36.484Z,28.40
2018-07-22T13:43:39.925Z,28.20
2018-07-22T13:48:43.056Z,28.20
2018-07-22T13:53:46.242Z,28.30
2018-07-22T13:58:49.306Z,28.40
2018-07-22T14:03:52.396Z,28.30
2018-07-22T14:08:56.027Z,28.00
2018-07-22T14:14:00.121Z,28.00
2018-07-22T14:19:03.197Z,27.90
2018-07-22T14:24:06.361Z,27.80
2018-07-22T14:29:09.505Z,27.80
2018-07-22T14:34:12.609Z,27.90
2018-07-22T14:39:15.670Z,27.90
2018-07-22T14:44:18.743Z,27.70
2018-07-22T14:49:21.865Z,27.70
2018-07-22T14:54:24.960Z,27.60
2018-07-22T14:59:28.093Z,27.60
2018-07-22T15:04:31.146Z,27.70
2018-07-22T15:09:34.221Z,28.00
2018-07-22T15:14:37.348Z,28.00
2018-07-22T15:19:40.710Z,28.00
2018-07-22T15:24:43.765Z,28.20
2018-07-22T15:29:46.838Z,28.20
2018-07-22T15:34:49.934Z,28.00
2018-07-22T15:39:52.995Z,27.90
2018-07-22T15:44:56.118Z,27.70
2018-07-22T15:49:59.563Z,27.40
2018-07-22T15:55:02.704Z,27.30
2018-07-22T16:00:07.295Z,27.30
2018-07-22T16:05:10.381Z,27.30
2018-07-22T16:10:13.482Z,27.30
2018-07-22T16:15:16.511Z,27.20
2018-07-22T16:20:19.547Z,27.20
2018-07-22T16:30:25.541Z,27.10
2018-07-22T16:35:29.227Z,27.10
2018-07-22T16:40:32.274Z,27.10
2018-07-22T16:45:35.364Z,27.10
2018-07-22T16:50:38.459Z,27.10
2018-07-22T16:55:41.507Z,27.20
2018-07-22T17:00:44.612Z,27.10
2018-07-22T17:05:47.718Z,27.00
2018-07-22T17:10:50.800Z,26.90
2018-07-22T17:15:54.128Z,27.00
2018-07-22T17:20:57.191Z,27.00
2018-07-22T17:26:00.329Z,26.90
2018-07-22T17:31:03.429Z,26.90
2018-07-22T17:36:06.427Z,26.80
2018-07-22T17:41:10.601Z,26.70
2018-07-22T17:46:14.482Z,26.50
2018-07-22T17:51:17.607Z,26.30
2018-07-22T17:56:20.693Z,26.20
2018-07-22T18:06:27.849Z,26.10
2018-07-22T18:11:34.052Z,26.10
2018-07-22T18:16:37.350Z,26.00
2018-07-22T18:21:41.493Z,25.90
2018-07-22T18:26:44.700Z,25.80
2018-07-22T18:31:47.760Z,25.70
2018-07-22T18:36:51.311Z,25.60
2018-07-22T18:41:54.363Z,25.40
2018-07-22T18:52:00.388Z,25.20
2018-07-22T18:57:03.458Z,25.10
2018-07-22T19:02:06.580Z,25.00
2018-07-22T19:07:09.666Z,24.80
2018-07-22T19:12:12.715Z,24.70
2018-07-22T19:17:15.792Z,24.60
2018-07-22T19:22:18.996Z,24.40
2018-07-22T19:27:23.030Z,24.30
2018-07-22T19:32:26.112Z,24.10
2018-07-22T19:37:29.162Z,24.00
2018-07-22T19:42:32.214Z,23.90
2018-07-22T19:47:35.288Z,23.70
2018-07-22T19:52:40.763Z,23.60
2018-07-22T19:57:44.061Z,23.50
2018-07-22T20:02:49.184Z,23.40
2018-07-22T20:07:52.272Z,23.20
2018-07-22T20:12:55.329Z,23.10
2018-07-22T20:17:58.435Z,23.10
2018-07-22T20:23:02.517Z,23.20
2018-07-22T20:28:05.620Z,23.20
2018-07-22T20:33:08.736Z,23.20
2018-07-22T20:38:11.837Z,23.20
2018-07-22T20:43:14.939Z,23.20
2018-07-22T20:48:18.012Z,23.20
2018-07-22T20:53:21.072Z,23.10
2018-07-22T20:58:24.166Z,23.10
2018-07-22T21:03:27.657Z,23.00
2018-07-22T21:08:30.728Z,22.90
2018-07-22T21:13:33.753Z,22.80
2018-07-22T21:18:36.804Z,22.70
2018-07-22T21:23:39.889Z,22.60
2018-07-22T21:28:42.965Z,22.50
2018-07-22T21:33:46.094Z,22.50
2018-07-22T21:38:49.118Z,22.40
2018-07-22T21:43:52.218Z,22.30
2018-07-22T21:48:55.277Z,22.20
2018-07-22T21:53:58.383Z,22.10
2018-07-22T21:59:01.470Z,22.00
2018-07-22T22:04:04.568Z,22.00
2018-07-22T22:09:07.953Z,21.90
2018-07-22T22:14:11.117Z,21.80
2018-07-22T22:19:14.179Z,21.70
2018-07-22T22:24:17.431Z,21.70
2018-07-22T22:29:20.496Z,21.60
2018-07-22T22:34:23.606Z,21.60
2018-07-22T22:39:26.717Z,21.50
2018-07-22T22:44:30.419Z,21.50
2018-07-22T22:49:33.496Z,21.40
2018-07-22T22:54:36.534Z,21.40
2018-07-22T22:59:39.577Z,21.30
2018-07-22T23:04:42.688Z,21.20
2018-07-22T23:09:45.795Z,21.10
2018-07-22T23:14:48.850Z,21.00
2018-07-22T23:19:51.889Z,20.90
2018-07-22T23:24:54.927Z,20.70
2018-07-22T23:29:58.001Z,20.60
2018-07-22T23:35:01.063Z,20.50
2018-07-22T23:40:04.137Z,20.40
2018-07-22T23:45:07.212Z,20.40
2018-07-22T23:50:11.271Z,20.30
2018-07-22T23:55:14.357Z,20.30
